Time,TemperatureF,DewpointF,PressureIn,WindDirection,WindDirectionDegrees,WindSpeedMPH,WindSpeedGustMPH,Humidity,HourlyPrecipIn,Conditions,Clouds,dailyrainin,SoftwareType,DateUTC
2019-07-23 00:04:37,78.3,55.2,30.14,NE,37,4.9,7,45,0,,,0,meteobridge,2019-07-22 22:04:37,
2019-07-23 00:08:37,78.1,55,30.14,NE,44,6.9,8,45,0,,,0,meteobridge,2019-07-22 22:08:37,
2019-07-23 00:14:37,78.3,54.5,30.14,NE,48,6,8,44,0,,,0,meteobridge,2019-07-22 22:14:37,
2019-07-23 00:18:37,78.4,54.7,30.13,NE,51,6,10,44,0,,,0,meteobridge,2019-07-22 22:18:37,
2019-07-23 00:24:39,78.6,54.9,30.13,NE,47,8.9,9,44,0,,,0,meteobridge,2019-07-22 22:24:39,
2019-07-23 00:28:39,78.6,54.9,30.13,ENE,72,4.9,9,44,0,,,0,meteobridge,2019-07-22 22:28:39,
2019-07-23 00:34:41,78.4,54.7,30.13,NE,37,6,7,44,0,,,0,meteobridge,2019-07-22 22:34:41,
2019-07-23 00:38:43,78.3,54.5,30.13,NE,43,0.9,6,44,0,,,0,meteobridge,2019-07-22 22:38:43,
2019-07-23 00:44:43,78.1,54.3,30.13,NE,49,2.9,7,44,0,,,0,meteobridge,2019-07-22 22:44:43,
2019-07-23 00:48:43,78.1,55,30.13,NNE,26,6,6,45,0,,,0,meteobridge,2019-07-22 22:48:43,
2019-07-23 00:54:47,77.7,54.7,30.13,North,4,2,7,45,0,,,0,meteobridge,2019-07-22 22:54:47,
2019-07-23 00:58:47,77.5,54.5,30.13,NNE,32,4.9,6,45,0,,,0,meteobridge,2019-07-22 22:58:47,
2019-07-23 01:04:47,77.4,54.3,30.13,NNE,30,2.9,7,45,0,,,0,meteobridge,2019-07-22 23:04:47,
2019-07-23 01:08:47,77.4,54.3,30.13,ENE,58,4.9,9,45,0,,,0,meteobridge,2019-07-22 23:08:47,
2019-07-23 01:14:47,77.2,54.1,30.13,NNE,18,2,5,45,0,,,0,meteobridge,2019-07-22 23:14:47,
2019-07-23 01:18:47,77,54.7,30.13,NE,43,0.9,5,46,0,,,0,meteobridge,2019-07-22 23:18:47,
2019-07-23 01:24:51,77,54.7,30.13,NNW,333,2,2,46,0,,,0,meteobridge,2019-07-22 23:24:51,
2019-07-23 01:28:53,76.6,54.3,30.13,NE,36,0,4,46,0,,,0,meteobridge,2019-07-22 23:28:53,
2019-07-23 01:32:53,76.3,54.5,30.13,North,1,0,2,47,0,,,0,meteobridge,2019-07-22 23:32:53,
2019-07-23 01:38:53,75.9,54.3,30.12,NW,315,0.9,1,47,0,,,0,meteobridge,2019-07-22 23:38:53,
2019-07-23 01:42:55,75.6,54,30.13,WNW,303,0.9,2,47,0,,,0,meteobridge,2019-07-22 23:42:55,
2019-07-23 01:48:55,75.4,54.3,30.12,WNW,297,0.9,3,48,0,,,0,meteobridge,2019-07-22 23:48:55,
2019-07-23 01:54:57,75,54,30.12,NNE,24,0.9,3,48,0,,,0,meteobridge,2019-07-22 23:54:57,
2019-07-23 01:58:57,75,54,30.12,NNW,338,2,4,48,0,,,0,meteobridge,2019-07-22 23:58:57,
2019-07-23 02:04:57,75,54,30.12,NE,43,0.9,3,48,0,,,0,meteobridge,2019-07-23 00:04:57,
2019-07-23 02:08:57,74.8,53.8,30.12,NNE,20,2,4,48,0,,,0,meteobridge,2019-07-23 00:08:57,
2019-07-23 02:12:57,74.7,54.3,30.12,NNE,32,2,4,49,0,,,0,meteobridge,2019-07-23 00:12:57,
2019-07-23 02:18:57,74.5,54.1,30.12,NE,39,4,5,49,0,,,0,meteobridge,2019-07-23 00:18:57,
2019-07-23 02:22:59,74.8,53.8,30.12,NNE,18,2.9,4,48,0,,,0,meteobridge,2019-07-23 00:22:59,
2019-07-23 02:28:59,75,54,30.12,NNE,30,0,4,48,0,,,0,meteobridge,2019-07-23 00:28:59,
2019-07-23 02:33:01,74.7,53.6,30.12,North,354,0,1,48,0,,,0,meteobridge,2019-07-23 00:33:01,
2019-07-23 02:39:03,73.9,53.6,30.12,NNW,348,0.9,1,49,0,,,0,meteobridge,2019-07-23 00:39:03,
2019-07-23 02:43:05,73.6,53.8,30.12,NNW,347,2,2,50,0,,,0,meteobridge,2019-07-23 00:43:05,
2019-07-23 02:49:05,73.4,53.6,30.12,NNW,347,2,2,50,0,,,0,meteobridge,2019-07-23 00:49:05,
2019-07-23 02:53:07,73.6,53.8,30.12,NNW,330,0.9,1,50,0,,,0,meteobridge,2019-07-23 00:53:07,
2019-07-23 02:59:08,73.6,53.8,30.12,North,354,0,1,50,0,,,0,meteobridge,2019-07-23 00:59:08,
2019-07-23 03:03:09,73.6,53.8,30.12,NNW,338,0.9,1,50,0,,,0,meteobridge,2019-07-23 01:03:09,
2019-07-23 03:09:09,73,53.8,30.12,NNW,347,2,2,51,0,,,0,meteobridge,2019-07-23 01:09:09,
2019-07-23 03:13:11,72.9,53.6,30.12,North,349,0.9,3,51,0,,,0,meteobridge,2019-07-23 01:13:11,
2019-07-23 03:19:15,72.3,53.8,30.12,NNW,335,0.9,2,52,0,,,0,meteobridge,2019-07-23 01:19:15,
2019-07-23 03:23:15,72.3,53.8,30.12,North,354,2,2,52,0,,,0,meteobridge,2019-07-23 01:23:15,
2019-07-23 03:29:15,72.3,53.8,30.12,North,350,0.9,2,52,0,,,0,meteobridge,2019-07-23 01:29:15,
2019-07-23 03:33:17,72.1,53.6,30.12,North,349,0,1,52,0,,,0,meteobridge,2019-07-23 01:33:17,
2019-07-23 03:39:19,72,54,30.12,NNW,341,2,2,53,0,,,0,meteobridge,2019-07-23 01:39:19,
2019-07-23 03:43:21,72,54,30.12,NNW,336,0.9,2,53,0,,,0,meteobridge,2019-07-23 01:43:21,
2019-07-23 03:49:21,71.8,53.8,30.12,NNW,336,0.9,2,53,0,,,0,meteobridge,2019-07-23 01:49:21,
2019-07-23 03:53:25,71.8,53.8,30.12,NNW,341,2,2,53,0,,,0,meteobridge,2019-07-23 01:53:25,
2019-07-23 03:59:31,71.6,53.6,30.12,NNW,335,0,2,53,0,,,0,meteobridge,2019-07-23 01:59:31,
2019-07-23 04:03:33,71.4,54,30.12,NNW,347,0.9,2,54,0,,,0,meteobridge,2019-07-23 02:03:33,
2019-07-23 04:09:36,71.1,53.6,30.12,North,6,0.9,3,54,0,,,0,meteobridge,2019-07-23 02:09:36,
2019-07-23 04:13:39,70.9,54,30.12,North,351,0.9,2,55,0,,,0,meteobridge,2019-07-23 02:13:39,
2019-07-23 04:19:41,70.3,53.4,30.12,North,349,0.9,3,55,0,,,0,meteobridge,2019-07-23 02:19:41,
2019-07-23 04:23:41,70.3,54,30.12,North,359,0.9,1,56,0,,,0,meteobridge,2019-07-23 02:23:41,
2019-07-23 04:29:45,70,53.6,30.11,NNE,13,0.9,2,56,0,,,0,meteobridge,2019-07-23 02:29:45,
2019-07-23 04:33:45,69.6,53.8,30.11,North,10,0.9,3,57,0,,,0,meteobridge,2019-07-23 02:33:45,
2019-07-23 04:39:47,69.3,53.8,30.11,NNE,15,0.9,2,58,0,,,0,meteobridge,2019-07-23 02:39:47,
2019-07-23 04:43:49,69.1,53.6,30.11,NNE,12,0.9,1,58,0,,,0,meteobridge,2019-07-23 02:43:49,
2019-07-23 04:49:53,69.1,53.6,30.11,North,1,2,3,58,0,,,0,meteobridge,2019-07-23 02:49:53,
2019-07-23 04:53:53,69.1,54.1,30.11,North,0,0.9,1,59,0,,,0,meteobridge,2019-07-23 02:53:53,
2019-07-23 04:59:55,68.9,54,30.11,North,355,0.9,2,59,0,,,0,meteobridge,2019-07-23 02:59:55,
2019-07-23 05:03:56,68.7,53.8,30.11,North,359,0.9,2,59,0,,,0,meteobridge,2019-07-23 03:03:56,
2019-07-23 05:09:56,68.5,53.6,30.11,North,359,0,1,59,0,,,0,meteobridge,2019-07-23 03:09:56,
2019-07-23 05:13:56,68.4,54,30.11,NNW,338,0.9,1,60,0,,,0,meteobridge,2019-07-23 03:13:56,
2019-07-23 05:19:56,68.4,54,30.11,NNW,333,2,2,60,0,,,0,meteobridge,2019-07-23 03:19:56,
2019-07-23 05:23:56,68.5,53.6,30.11,NNW,330,2,2,59,0,,,0,meteobridge,2019-07-23 03:23:56,
2019-07-23 05:29:56,68.4,54,30.11,NW,323,0,1,60,0,,,0,meteobridge,2019-07-23 03:29:56,
2019-07-23 05:33:56,68.4,54,30.10,NW,323,0,1,60,0,,,0,meteobridge,2019-07-23 03:33:56,
2019-07-23 05:39:56,67.8,54,30.10,North,356,2,2,61,0,,,0,meteobridge,2019-07-23 03:39:56,
2019-07-23 05:43:56,68,54,30.10,NNW,345,0,2,61,0,,,0,meteobridge,2019-07-23 03:43:56,
2019-07-23 05:49:56,67.8,54,30.10,NNW,345,0,0,61,0,,,0,meteobridge,2019-07-23 03:49:56,
2019-07-23 05:53:56,67.6,53.8,30.10,NNW,345,0,0,61,0,,,0,meteobridge,2019-07-23 03:53:56,
2019-07-23 05:59:56,67.5,54,30.10,North,4,0.9,1,62,0,,,0,meteobridge,2019-07-23 03:59:56,
2019-07-23 06:03:56,67.3,53.8,30.10,North,5,0.9,1,62,0,,,0,meteobridge,2019-07-23 04:03:56,
2019-07-23 06:07:56,67.3,54.3,30.10,North,10,0.9,2,63,0,,,0,meteobridge,2019-07-23 04:07:56,
2019-07-23 06:13:56,67.6,54.1,30.10,NNE,15,2,2,62,0,,,0,meteobridge,2019-07-23 04:13:56,
2019-07-23 06:17:56,67.6,54.7,30.10,NNW,342,0.9,1,63,0,,,0,meteobridge,2019-07-23 04:17:56,
2019-07-23 06:23:56,67.3,54.3,30.10,North,6,0.9,2,63,0,,,0,meteobridge,2019-07-23 04:23:56,
2019-07-23 06:29:56,67.3,54.3,30.10,North,352,2.9,3,63,0,,,0,meteobridge,2019-07-23 04:29:56,
2019-07-23 06:33:56,67.1,54.5,30.10,NW,314,0,2,64,0,,,0,meteobridge,2019-07-23 04:33:56,
2019-07-23 06:39:56,67.3,54.7,30.10,NNW,334,2,3,64,0,,,0,meteobridge,2019-07-23 04:39:56,
2019-07-23 06:43:58,67.5,54.9,30.10,NNW,342,0,1,64,0,,,0,meteobridge,2019-07-23 04:43:58,
2019-07-23 06:48:00,67.6,54.7,30.10,North,3,2,2,63,0,,,0,meteobridge,2019-07-23 04:48:00,
2019-07-23 06:54:02,67.3,54.7,30.10,North,4,0.9,2,64,0,,,0,meteobridge,2019-07-23 04:54:02,
2019-07-23 06:58:02,67.3,55,30.09,North,359,0.9,2,65,0,,,0,meteobridge,2019-07-23 04:58:02,
2019-07-23 07:04:04,67.8,55.2,30.09,North,358,0,1,64,0,,,0,meteobridge,2019-07-23 05:04:04,
2019-07-23 07:08:04,68,55.4,30.09,North,1,0,2,64,0,,,0,meteobridge,2019-07-23 05:08:04,
2019-07-23 07:14:06,68.4,55.2,30.09,North,4,2,2,63,0,,,0,meteobridge,2019-07-23 05:14:06,
2019-07-23 07:18:08,68.4,54.9,30.09,North,4,0.9,2,62,0,,,0,meteobridge,2019-07-23 05:18:08,
2019-07-23 07:24:12,68.7,55.6,30.09,North,359,0,2,63,0,,,0,meteobridge,2019-07-23 05:24:12,
2019-07-23 07:28:14,69.3,55.8,30.09,North,8,2,2,62,0,,,0,meteobridge,2019-07-23 05:28:14,
2019-07-23 07:34:14,69.6,55.9,30.09,North,2,0,1,62,0,,,0,meteobridge,2019-07-23 05:34:14,
2019-07-23 07:38:18,70.2,56.1,30.09,North,0,0,1,61,0,,,0,meteobridge,2019-07-23 05:38:18,
2019-07-23 07:44:22,70.5,55.9,30.10,NW,318,0,2,60,0,,,0,meteobridge,2019-07-23 05:44:22,
2019-07-23 07:48:24,70.9,56.3,30.09,NW,318,0,0,60,0,,,0,meteobridge,2019-07-23 05:48:24,
2019-07-23 07:54:24,71.8,56.7,30.09,North,11,0,1,59,0,,,0,meteobridge,2019-07-23 05:54:24,
2019-07-23 07:58:24,72.1,57,30.09,North,7,0,0,59,0,,,0,meteobridge,2019-07-23 05:58:24,
2019-07-23 08:04:30,72.9,56.7,30.10,NNW,334,0,1,57,0,,,0,meteobridge,2019-07-23 06:04:30,
2019-07-23 08:08:32,73.4,57.2,30.10,NNE,14,0.9,2,57,0,,,0,meteobridge,2019-07-23 06:08:32,
2019-07-23 08:14:36,73.9,57.2,30.09,North,2,2,3,56,0,,,0,meteobridge,2019-07-23 06:14:36,
2019-07-23 08:18:36,74.1,57.4,30.10,North,359,2,3,56,0,,,0,meteobridge,2019-07-23 06:18:36,
2019-07-23 08:24:42,74.8,58.1,30.10,North,3,2,3,56,0,,,0,meteobridge,2019-07-23 06:24:42,
2019-07-23 08:28:44,75.4,58.6,30.09,NNE,16,2,2,56,0,,,0,meteobridge,2019-07-23 06:28:44,
2019-07-23 08:34:44,75.7,58.5,30.09,NNE,30,2,3,55,0,,,0,meteobridge,2019-07-23 06:34:44,
2019-07-23 08:38:46,76.1,58.3,30.09,NE,39,2.9,4,54,0,,,0,meteobridge,2019-07-23 06:38:46,
2019-07-23 08:44:48,76.5,58.1,30.09,NE,36,2,5,53,0,,,0,meteobridge,2019-07-23 06:44:48,
2019-07-23 08:48:48,76.8,58.5,30.09,NE,37,2,5,53,0,,,0,meteobridge,2019-07-23 06:48:48,
2019-07-23 08:54:48,77.5,58.5,30.10,NE,38,2.9,5,52,0,,,0,meteobridge,2019-07-23 06:54:48,
2019-07-23 08:58:50,77.9,59.4,30.09,ENE,65,0.9,4,53,0,,,0,meteobridge,2019-07-23 06:58:50,
2019-07-23 09:02:50,78.3,59.2,30.10,NNE,30,2,3,52,0,,,0,meteobridge,2019-07-23 07:02:50,
2019-07-23 09:08:54,78.8,59.7,30.10,ENE,68,2,3,52,0,,,0,meteobridge,2019-07-23 07:08:54,
2019-07-23 09:12:56,79,59.4,30.10,ENE,68,0.9,3,51,0,,,0,meteobridge,2019-07-23 07:12:56,
2019-07-23 09:18:56,79.7,59.9,30.10,NNE,32,0,2,51,0,,,0,meteobridge,2019-07-23 07:18:56,
2019-07-23 09:23:00,80.1,60.3,30.10,NE,36,0,2,51,0,,,0,meteobridge,2019-07-23 07:23:00,
2019-07-23 09:29:04,80.8,61,30.10,ESE,106,0,2,51,0,,,0,meteobridge,2019-07-23 07:29:04,
2019-07-23 09:33:04,81.3,61,30.10,SE,136,0.9,2,50,0,,,0,meteobridge,2019-07-23 07:33:04,
2019-07-23 09:39:06,82,61,30.10,ESE,103,0,0,49,0,,,0,meteobridge,2019-07-23 07:39:06,
2019-07-23 09:43:06,82.4,60.8,30.10,South,171,0,2,48,0,,,0,meteobridge,2019-07-23 07:43:06,
2019-07-23 09:49:08,83.1,61.3,30.10,ESE,106,2,2,48,0,,,0,meteobridge,2019-07-23 07:49:08,
2019-07-23 09:53:08,83.5,60.4,30.09,East,99,2,3,46,0,,,0,meteobridge,2019-07-23 07:53:08,
2019-07-23 09:59:12,84.4,61.9,30.09,East,98,2,3,47,0,,,0,meteobridge,2019-07-23 07:59:12,
2019-07-23 10:03:14,84.6,62.1,30.09,East,87,2.9,5,47,0,,,0,meteobridge,2019-07-23 08:03:14,
2019-07-23 10:09:14,84.4,61.3,30.09,East,84,6,6,46,0,,,0,meteobridge,2019-07-23 08:09:14,
2019-07-23 10:13:16,84.4,61.3,30.09,SE,131,2,5,46,0,,,0,meteobridge,2019-07-23 08:13:16,
2019-07-23 10:19:18,84.4,61.9,30.09,ESE,105,0.9,4,47,0,,,0,meteobridge,2019-07-23 08:19:18,
2019-07-23 10:23:18,85.3,61.5,30.09,SE,137,2,4,45,0,,,0,meteobridge,2019-07-23 08:23:18,
2019-07-23 10:29:20,85.8,62.6,30.09,ESE,108,0.9,4,46,0,,,0,meteobridge,2019-07-23 08:29:20,
2019-07-23 10:33:22,85.8,63.3,30.09,East,88,2,3,47,0,,,0,meteobridge,2019-07-23 08:33:22,
2019-07-23 10:39:24,86,62.8,30.09,ESE,114,0,6,46,0,,,0,meteobridge,2019-07-23 08:39:24,
2019-07-23 10:43:26,86.2,62.4,30.09,ESE,103,4,6,45,0,,,0,meteobridge,2019-07-23 08:43:26,
2019-07-23 10:49:26,86.4,63.1,30.09,East,98,2.9,6,46,0,,,0,meteobridge,2019-07-23 08:49:26,
2019-07-23 10:53:26,86.5,62.1,30.09,East,91,4.9,5,44,0,,,0,meteobridge,2019-07-23 08:53:26,
2019-07-23 10:59:26,86.7,62.8,30.08,ESE,113,0.9,4,45,0,,,0,meteobridge,2019-07-23 08:59:26,
2019-07-23 11:03:26,87.1,62.6,30.08,East,84,4,8,44,0,,,0,meteobridge,2019-07-23 09:03:26,
2019-07-23 11:09:26,87.4,63.5,30.08,NE,56,4.9,5,45,0,,,0,meteobridge,2019-07-23 09:09:26,
2019-07-23 11:13:26,87.6,61.7,30.08,SE,131,2.9,8,42,0,,,0,meteobridge,2019-07-23 09:13:26,
2019-07-23 11:19:28,88.3,62.4,30.08,ENE,75,2,9,42,0,,,0,meteobridge,2019-07-23 09:19:28,
2019-07-23 11:23:28,89.1,62.2,30.08,SE,146,2,3,41,0,,,0,meteobridge,2019-07-23 09:23:28,
2019-07-23 11:29:30,90,62.4,30.08,ESE,104,4,4,40,0,,,0,meteobridge,2019-07-23 09:29:30,
2019-07-23 11:33:30,90.1,61.9,30.08,ESE,113,2,5,39,0,,,0,meteobridge,2019-07-23 09:33:30,
2019-07-23 11:39:30,90.3,61.3,30.08,East,90,2,6,38,0,,,0,meteobridge,2019-07-23 09:39:30,
2019-07-23 11:43:32,90.7,62.2,30.08,East,101,2,6,39,0,,,0,meteobridge,2019-07-23 09:43:32,
2019-07-23 11:49:34,90.9,61.7,30.07,SSE,148,0.9,4,38,0,,,0,meteobridge,2019-07-23 09:49:34,
2019-07-23 11:53:34,91.6,61.7,30.07,East,81,2,6,37,0,,,0,meteobridge,2019-07-23 09:53:34,
2019-07-23 11:59:34,91.6,61.7,30.07,ESE,107,6,7,37,0,,,0,meteobridge,2019-07-23 09:59:34,
2019-07-23 12:03:34,91.9,62.8,30.07,East,84,2,6,38,0,,,0,meteobridge,2019-07-23 10:03:34,
2019-07-23 12:09:36,91.9,59.5,30.07,ENE,57,4,8,34,0,,,0,meteobridge,2019-07-23 10:09:36,
2019-07-23 12:13:36,92.1,59.7,30.07,SE,141,6,11,34,0,,,0,meteobridge,2019-07-23 10:13:36,
2019-07-23 12:19:36,92.7,61,30.07,East,85,4,6,35,0,,,0,meteobridge,2019-07-23 10:19:36,
2019-07-23 12:23:36,92.3,60.6,30.07,ENE,77,4,6,35,0,,,0,meteobridge,2019-07-23 10:23:36,
2019-07-23 12:29:40,92.7,60.3,30.06,East,100,2,6,34,0,,,0,meteobridge,2019-07-23 10:29:40,
2019-07-23 12:33:42,93.4,60.8,30.06,ESE,113,0.9,7,34,0,,,0,meteobridge,2019-07-23 10:33:42,
2019-07-23 12:39:42,93.9,60.4,30.07,SE,128,0.9,9,33,0,,,0,meteobridge,2019-07-23 10:39:42,
2019-07-23 12:43:44,93.2,59.9,30.06,SSE,147,2.9,7,33,0,,,0,meteobridge,2019-07-23 10:43:44,
2019-07-23 12:49:44,93.7,61.2,30.06,East,98,4,7,34,0,,,0,meteobridge,2019-07-23 10:49:44,
2019-07-23 12:53:44,93.9,61.3,30.06,ENE,64,2,6,34,0,,,0,meteobridge,2019-07-23 10:53:44,
2019-07-23 12:59:47,93.7,60.3,30.06,East,90,4.9,10,33,0,,,0,meteobridge,2019-07-23 10:59:47,
2019-07-23 13:03:48,93.4,59.2,30.05,SSW,211,2,7,32,0,,,0,meteobridge,2019-07-23 11:03:48,
2019-07-23 13:09:48,94.5,61,30.05,ESE,115,0,7,33,0,,,0,meteobridge,2019-07-23 11:09:48,
2019-07-23 13:13:48,94.5,60.1,30.05,SE,128,2,8,32,0,,,0,meteobridge,2019-07-23 11:13:48,
2019-07-23 13:17:48,94.1,58.8,30.05,ENE,63,6,8,31,0,,,0,meteobridge,2019-07-23 11:17:48,
2019-07-23 13:23:48,94.6,58.5,30.05,SSE,167,0.9,8,30,0,,,0,meteobridge,2019-07-23 11:23:48,
2019-07-23 13:29:48,95.4,59,30.05,ENE,66,2,11,30,0,,,0,meteobridge,2019-07-23 11:29:48,
2019-07-23 13:33:48,95.9,59.5,30.05,SW,236,4,7,30,0,,,0,meteobridge,2019-07-23 11:33:48,
2019-07-23 13:39:48,96.8,59.4,30.04,SW,226,2.9,4,29,0,,,0,meteobridge,2019-07-23 11:39:48,
2019-07-23 13:43:48,97.2,58.6,30.04,East,80,2,3,28,0,,,0,meteobridge,2019-07-23 11:43:48,
2019-07-23 13:49:48,97.5,59,30.04,East,98,4,10,28,0,,,0,meteobridge,2019-07-23 11:49:48,
2019-07-23 13:53:48,97.2,58.6,30.04,ESE,121,4,5,28,0,,,0,meteobridge,2019-07-23 11:53:48,
2019-07-23 13:59:50,97.2,57.6,30.04,East,80,2,6,27,0,,,0,meteobridge,2019-07-23 11:59:50,
2019-07-23 14:03:50,97.2,58.6,30.04,SSE,161,4.9,8,28,0,,,0,meteobridge,2019-07-23 12:03:50,
2019-07-23 14:09:52,96.6,58.1,30.04,ESE,113,4.9,5,28,0,,,0,meteobridge,2019-07-23 12:09:52,
2019-07-23 14:13:56,95.9,57.6,30.04,ENE,75,6,12,28,0,,,0,meteobridge,2019-07-23 12:13:56,
2019-07-23 14:19:56,95.5,57.2,30.04,ENE,77,4.9,5,28,0,,,0,meteobridge,2019-07-23 12:19:56,
2019-07-23 14:23:59,96.1,57.7,30.03,ESE,105,2.9,9,28,0,,,0,meteobridge,2019-07-23 12:23:59,
2019-07-23 14:28:02,96.3,57.9,30.03,South,169,0.9,1,28,0,,,0,meteobridge,2019-07-23 12:28:02,
2019-07-23 14:34:02,97,57.4,30.03,South,178,0.9,7,27,0,,,0,meteobridge,2019-07-23 12:34:02,
2019-07-23 14:38:02,97.3,57.7,30.03,ESE,120,2.9,5,27,0,,,0,meteobridge,2019-07-23 12:38:02,
2019-07-23 14:44:04,97.5,57.9,30.03,WSW,241,4.9,7,27,0,,,0,meteobridge,2019-07-23 12:44:04,
2019-07-23 14:48:06,98.1,56.3,30.03,ENE,66,2,6,25,0,,,0,meteobridge,2019-07-23 12:48:06,
2019-07-23 14:54:06,98.2,56.3,30.03,ENE,78,4,4,25,0,,,0,meteobridge,2019-07-23 12:54:06,
2019-07-23 14:58:08,98.1,56.3,30.02,NE,54,2.9,6,25,0,,,0,meteobridge,2019-07-23 12:58:08,
2019-07-23 15:04:08,97.5,57.9,30.02,ESE,122,2.9,4,27,0,,,0,meteobridge,2019-07-23 13:04:08,
2019-07-23 15:08:10,97.5,55.8,30.02,SSW,205,4,7,25,0,,,0,meteobridge,2019-07-23 13:08:10,
2019-07-23 15:14:11,98.2,56.3,30.02,SE,136,2,6,25,0,,,0,meteobridge,2019-07-23 13:14:11,
2019-07-23 15:18:11,98.2,55.2,30.02,WSW,254,4.9,5,24,0,,,0,meteobridge,2019-07-23 13:18:11,
2019-07-23 15:24:11,98.2,57.6,30.02,ESE,121,4,9,26,0,,,0,meteobridge,2019-07-23 13:24:11,
2019-07-23 15:28:11,98.4,56.5,30.01,ESE,108,0,4,25,0,,,0,meteobridge,2019-07-23 13:28:11,
2019-07-23 15:34:11,99,57,30.01,SSE,151,0.9,10,25,0,,,0,meteobridge,2019-07-23 13:34:11,
2019-07-23 15:38:11,99.1,57.2,30.01,SE,129,2.9,7,25,0,,,0,meteobridge,2019-07-23 13:38:11,
2019-07-23 15:44:11,98.4,56.5,30.01,East,83,4.9,6,25,0,,,0,meteobridge,2019-07-23 13:44:11,
2019-07-23 15:48:11,98.2,56.3,30.01,SE,132,0.9,4,25,0,,,0,meteobridge,2019-07-23 13:48:11,
2019-07-23 15:54:11,98.8,55.8,30.01,SW,214,4.9,6,24,0,,,0,meteobridge,2019-07-23 13:54:11,
2019-07-23 15:58:11,99.3,56.1,30.01,SSE,152,2,6,24,0,,,0,meteobridge,2019-07-23 13:58:11,
2019-07-23 16:04:11,100,56.8,30.01,ESE,118,0.9,6,24,0,,,0,meteobridge,2019-07-23 14:04:11,
2019-07-23 16:08:11,100,56.8,30.01,East,83,2,4,24,0,,,0,meteobridge,2019-07-23 14:08:11,
2019-07-23 16:14:11,100.4,54.7,30.00,SSW,207,4,4,22,0,,,0,meteobridge,2019-07-23 14:14:11,
2019-07-23 16:18:11,100.2,54.5,30.00,SE,141,0,4,22,0,,,0,meteobridge,2019-07-23 14:18:11,
2019-07-23 16:24:11,100.2,54.5,30.00,SSE,152,0.9,4,22,0,,,0,meteobridge,2019-07-23 14:24:11,
2019-07-23 16:28:11,100,53.1,30.00,SE,134,0,1,21,0,,,0,meteobridge,2019-07-23 14:28:11,
2019-07-23 16:34:11,99.9,54.1,30.00,NE,51,0.9,2,22,0,,,0,meteobridge,2019-07-23 14:34:11,
2019-07-23 16:38:11,99.5,52.7,29.99,NNW,333,0.9,2,21,0,,,0,meteobridge,2019-07-23 14:38:11,
2019-07-23 16:44:11,99.7,54.1,29.99,East,80,2.9,5,22,0,,,0,meteobridge,2019-07-23 14:44:11,
2019-07-23 16:48:11,99.3,55,29.99,East,86,4.9,8,23,0,,,0,meteobridge,2019-07-23 14:48:11,
2019-07-23 16:54:11,99.5,54,29.99,SW,227,0,5,22,0,,,0,meteobridge,2019-07-23 14:54:11,
2019-07-23 16:58:11,99.9,55.4,29.99,ESE,104,2.9,7,23,0,,,0,meteobridge,2019-07-23 14:58:11,
2019-07-23 17:04:11,99.9,55.4,29.99,East,88,2,5,23,0,,,0,meteobridge,2019-07-23 15:04:11,
2019-07-23 17:08:11,99.3,53.8,29.99,ESE,106,2,5,22,0,,,0,meteobridge,2019-07-23 15:08:11,
2019-07-23 17:14:11,99.5,55.2,29.99,ESE,117,2,2,23,0,,,0,meteobridge,2019-07-23 15:14:11,
2019-07-23 17:18:13,99.9,54.1,29.99,ESE,103,0,2,22,0,,,0,meteobridge,2019-07-23 15:18:13,
2019-07-23 17:24:15,99.9,54.1,29.98,WNW,300,0.9,3,22,0,,,0,meteobridge,2019-07-23 15:24:15,
2019-07-23 17:28:15,100.2,54.5,29.98,North,4,4.9,5,22,0,,,0,meteobridge,2019-07-23 15:28:15,
2019-07-23 17:34:15,100.2,54.5,29.98,ENE,75,6.9,8,22,0,,,0,meteobridge,2019-07-23 15:34:15,
2019-07-23 17:38:17,99.9,54.1,29.98,SSE,147,0,3,22,0,,,0,meteobridge,2019-07-23 15:38:17,
2019-07-23 17:44:17,99.7,54.1,29.98,ENE,68,2.9,5,22,0,,,0,meteobridge,2019-07-23 15:44:17,
2019-07-23 17:48:17,99.9,54.1,29.98,ESE,121,0.9,3,22,0,,,0,meteobridge,2019-07-23 15:48:17,
2019-07-23 17:54:19,100.2,54.5,29.98,ENE,77,2,4,22,0,,,0,meteobridge,2019-07-23 15:54:19,
2019-07-23 17:58:21,100,54.3,29.98,ENE,64,2,5,22,0,,,0,meteobridge,2019-07-23 15:58:21,
2019-07-23 18:04:23,99.9,54.1,29.98,ESE,103,0.9,4,22,0,,,0,meteobridge,2019-07-23 16:04:23,
2019-07-23 18:08:25,100.2,54.5,29.98,WNW,288,0,0,22,0,,,0,meteobridge,2019-07-23 16:08:25,
2019-07-23 18:14:27,100.9,53.8,29.98,ESE,102,4.9,5,21,0,,,0,meteobridge,2019-07-23 16:14:27,
2019-07-23 18:18:27,100.2,54.5,29.98,ENE,68,0.9,3,22,0,,,0,meteobridge,2019-07-23 16:18:27,
2019-07-23 18:24:29,100,54.3,29.97,NNE,28,0,4,22,0,,,0,meteobridge,2019-07-23 16:24:29,
2019-07-23 18:28:29,99.9,54.1,29.97,ENE,74,2,3,22,0,,,0,meteobridge,2019-07-23 16:28:29,
2019-07-23 18:34:29,99.7,54.1,29.97,NNE,30,2,3,22,0,,,0,meteobridge,2019-07-23 16:34:29,
2019-07-23 18:38:31,99.7,54.1,29.97,NE,49,2,2,22,0,,,0,meteobridge,2019-07-23 16:38:31,
2019-07-23 18:44:33,99.7,54.1,29.97,NE,35,4.9,5,22,0,,,0,meteobridge,2019-07-23 16:44:33,
2019-07-23 18:48:33,99.3,53.8,29.97,East,92,2,4,22,0,,,0,meteobridge,2019-07-23 16:48:33,
2019-07-23 18:54:35,99.3,56.1,29.97,ESE,105,0.9,6,24,0,,,0,meteobridge,2019-07-23 16:54:35,
2019-07-23 18:58:35,99.3,55,29.97,ENE,77,0.9,3,23,0,,,0,meteobridge,2019-07-23 16:58:35,
2019-07-23 19:04:35,99.1,54.9,29.97,ENE,72,4.9,5,23,0,,,0,meteobridge,2019-07-23 17:04:35,
2019-07-23 19:08:37,99.1,54.9,29.97,East,99,2,4,23,0,,,0,meteobridge,2019-07-23 17:08:37,
2019-07-23 19:14:39,99.1,54.9,29.97,SE,127,0.9,2,23,0,,,0,meteobridge,2019-07-23 17:14:39,
2019-07-23 19:18:41,99.1,53.6,29.97,East,84,0,1,22,0,,,0,meteobridge,2019-07-23 17:18:41,
2019-07-23 19:24:45,99.1,55.9,29.96,ESE,111,0.9,6,24,0,,,0,meteobridge,2019-07-23 17:24:45,
2019-07-23 19:28:47,98.8,56.8,29.97,East,89,2.9,3,25,0,,,0,meteobridge,2019-07-23 17:28:47,
2019-07-23 19:34:49,98.6,56.7,29.97,East,85,0,1,25,0,,,0,meteobridge,2019-07-23 17:34:49,
2019-07-23 19:38:51,98.4,56.5,29.97,East,101,0.9,3,25,0,,,0,meteobridge,2019-07-23 17:38:51,
2019-07-23 19:42:53,98.4,56.5,29.97,ENE,68,2,3,25,0,,,0,meteobridge,2019-07-23 17:42:53,
2019-07-23 19:48:53,98.2,56.3,29.97,East,81,2,3,25,0,,,0,meteobridge,2019-07-23 17:48:53,
2019-07-23 19:52:55,98.1,56.3,29.96,East,90,0.9,4,25,0,,,0,meteobridge,2019-07-23 17:52:55,
2019-07-23 19:58:55,97.9,57.2,29.96,East,82,0.9,1,26,0,,,0,meteobridge,2019-07-23 17:58:55,
2019-07-23 20:04:57,97.9,57.2,29.96,East,89,0,1,26,0,,,0,meteobridge,2019-07-23 18:04:57,
2019-07-23 20:08:57,97.5,56.8,29.97,East,89,2,3,26,0,,,0,meteobridge,2019-07-23 18:08:57,
2019-07-23 20:12:59,97.3,56.7,29.97,ENE,76,0,2,26,0,,,0,meteobridge,2019-07-23 18:12:59,
2019-07-23 20:18:59,97,57.4,29.96,ENE,78,2,3,27,0,,,0,meteobridge,2019-07-23 18:18:59,
2019-07-23 20:22:59,96.6,57.2,29.96,East,97,2,3,27,0,,,0,meteobridge,2019-07-23 18:22:59,
2019-07-23 20:29:01,96.3,56.8,29.97,East,89,0.9,1,27,0,,,0,meteobridge,2019-07-23 18:29:01,
2019-07-23 20:33:03,96.1,56.7,29.96,East,87,0,2,27,0,,,0,meteobridge,2019-07-23 18:33:03,
2019-07-23 20:39:07,95.5,57.2,29.97,East,88,0.9,2,28,0,,,0,meteobridge,2019-07-23 18:39:07,
2019-07-23 20:43:07,95.2,57,29.96,SE,142,2,3,28,0,,,0,meteobridge,2019-07-23 18:43:07,
2019-07-23 20:49:07,94.6,56.5,29.96,East,80,2,4,28,0,,,0,meteobridge,2019-07-23 18:49:07,
2019-07-23 20:53:09,94.3,57.2,29.96,East,96,0.9,4,29,0,,,0,meteobridge,2019-07-23 18:53:09,
2019-07-23 20:59:11,93.9,56.8,29.96,East,98,2.9,5,29,0,,,0,meteobridge,2019-07-23 18:59:11,
2019-07-23 21:03:11,93.7,56.7,29.96,East,82,2.9,6,29,0,,,0,meteobridge,2019-07-23 19:03:11,
2019-07-23 21:09:11,93.4,56.3,29.96,ENE,78,2.9,6,29,0,,,0,meteobridge,2019-07-23 19:09:11,
2019-07-23 21:13:11,93.2,56.3,29.96,East,100,0.9,4,29,0,,,0,meteobridge,2019-07-23 19:13:11,
2019-07-23 21:19:13,92.8,56.8,29.96,ENE,71,2,5,30,0,,,0,meteobridge,2019-07-23 19:19:13,
2019-07-23 21:23:15,92.7,56.7,29.96,East,84,4.9,5,30,0,,,0,meteobridge,2019-07-23 19:23:15,
2019-07-23 21:29:17,92.5,56.5,29.96,East,96,2.9,4,30,0,,,0,meteobridge,2019-07-23 19:29:17,
2019-07-23 21:33:17,92.3,56.3,29.96,East,84,4,5,30,0,,,0,meteobridge,2019-07-23 19:33:17,
2019-07-23 21:39:19,92.1,56.3,29.96,East,82,2,3,30,0,,,0,meteobridge,2019-07-23 19:39:19,
2019-07-23 21:43:21,91.8,55.9,29.96,ENE,71,2,4,30,0,,,0,meteobridge,2019-07-23 19:43:21,
2019-07-23 21:49:25,91,55.2,29.96,East,85,2,3,30,0,,,0,meteobridge,2019-07-23 19:49:25,
2019-07-23 21:53:25,90.7,55,29.96,East,86,2.9,6,30,0,,,0,meteobridge,2019-07-23 19:53:25,
2019-07-23 21:59:27,90.5,55.8,29.96,East,85,2.9,4,31,0,,,0,meteobridge,2019-07-23 19:59:27,
2019-07-23 22:03:27,90.1,56.3,29.96,East,84,2,2,32,0,,,0,meteobridge,2019-07-23 20:03:27,
2019-07-23 22:09:31,89.6,55.8,29.96,ENE,77,2,3,32,0,,,0,meteobridge,2019-07-23 20:09:31,
2019-07-23 22:13:31,89.4,56.5,29.96,ENE,61,2,3,33,0,,,0,meteobridge,2019-07-23 20:13:31,
2019-07-23 22:19:33,88.5,56.5,29.96,NE,44,2,3,34,0,,,0,meteobridge,2019-07-23 20:19:33,
2019-07-23 22:23:37,88.3,57.2,29.96,NE,43,2.9,4,35,0,,,0,meteobridge,2019-07-23 20:23:37,
2019-07-23 22:29:39,87.6,57.4,29.96,NNE,23,0.9,2,36,0,,,0,meteobridge,2019-07-23 20:29:39,
2019-07-23 22:33:41,87.3,57,29.96,NNE,23,0,0,36,0,,,0,meteobridge,2019-07-23 20:33:41,
2019-07-23 22:39:41,86.2,57.6,29.96,WNW,302,0,1,38,0,,,0,meteobridge,2019-07-23 20:39:41,
2019-07-23 22:43:43,85.8,57.2,29.96,WNW,302,0,1,38,0,,,0,meteobridge,2019-07-23 20:43:43,
2019-07-23 22:49:43,86,58.1,29.96,NNE,12,0.9,1,39,0,,,0,meteobridge,2019-07-23 20:49:43,
2019-07-23 22:53:45,86.2,58.3,29.96,North,3,0,1,39,0,,,0,meteobridge,2019-07-23 20:53:45,
2019-07-23 22:59:49,84.7,58.5,29.96,WNW,293,2,3,41,0,,,0,meteobridge,2019-07-23 20:59:49,
2019-07-23 23:03:51,84.6,58.3,29.96,WNW,293,0,1,41,0,,,0,meteobridge,2019-07-23 21:03:51,
2019-07-23 23:09:53,84.7,58.5,29.96,WNW,301,0,1,41,0,,,0,meteobridge,2019-07-23 21:09:53,
2019-07-23 23:13:55,84.7,58.5,29.96,WNW,301,0,0,41,0,,,0,meteobridge,2019-07-23 21:13:55,
2019-07-23 23:19:57,83.8,58.3,29.96,WNW,301,0,0,42,0,,,0,meteobridge,2019-07-23 21:19:57,
2019-07-23 23:23:57,83.5,58.6,29.96,WNW,301,0,0,43,0,,,0,meteobridge,2019-07-23 21:23:57,
2019-07-23 23:27:59,82.9,58.8,29.97,WNW,293,0.9,2,44,0,,,0,meteobridge,2019-07-23 21:27:59,
2019-07-23 23:34:01,82,58.6,29.97,WNW,294,2,3,45,0,,,0,meteobridge,2019-07-23 21:34:01,
2019-07-23 23:38:01,81.7,58.3,29.97,WNW,291,0.9,1,45,0,,,0,meteobridge,2019-07-23 21:38:01,
2019-07-23 23:44:03,81.1,59,29.97,WNW,290,0.9,2,47,0,,,0,meteobridge,2019-07-23 21:44:03,
2019-07-23 23:48:03,81,58.8,29.97,WNW,290,0.9,1,47,0,,,0,meteobridge,2019-07-23 21:48:03,
2019-07-23 23:54:03,80.8,58.6,29.97,WNW,289,0.9,1,47,0,,,0,meteobridge,2019-07-23 21:54:03,
2019-07-23 23:58:05,80.4,59,29.97,WNW,294,2,2,48,0,,,0,meteobridge,2019-07-23 21:58:05,